FAUPFABL

Guest
Details From FAUP - Upington
To FABL - Bloemfontein
Flight Number -
Tags generated
Created
Modified
Stats Distance 269 nm / 498 km
Max Altitude 17,700 ft / 5,395 m
Waypoints 4
Social Downloads 2
Likes 0
Share VATSIM

Download

Looking for another format? Having issues loading an existing format? Contact us
Advertisement - Login to hide

Notes

Basic altitude profile: - Ascent Rate: 2500ft/min - Ascent Speed: 250kts - Cruise Altitude: 35000ft - Cruise Speed: 420kts - Descent Rate: 1500ft/min - Descent Speed: 250kts Options: - Use NATs: yes - Use PACOTS: yes - Use low airways: yes - Use high airways: yes

Route

FAUP UPV W97F KYV FABL

ID Type Via Altitude Latitude Longitude Leg Dist Tot Dist Heading (true) Name
O FAUP APT - 0 ft / 0 m -28.40167˚ 21.26119˚ - 0 nm - Upington
UPV VOR - 0 ft / 0 m -28.40170˚ 21.26037˚ 0 nm 0 nm 268° / 268° UPINGTON VOR-DME
KYV VOR W97F (AWY-LO) 17,700 ft / 5,395 m -28.79995˚ 24.76037˚ 186 nm 186 nm 98° / 97° KIMBERLEY VOR-DME
O FABL APT - 0 ft / 0 m -29.09256˚ 26.29942˚ 82 nm 268 nm 103° / 102° Bloemfontein

Altitude Profile

Advertisement - Login to hide

Weather


0- 5 10 15 20 25 30 35+ Temperature / ° C

Clouds and Precipitation
Forecast for 2017-12-17 12:00 UTC. Updated 41 minutes ago

Ground ~20,000 ft ~40,000 ft Winds

FAUP

Details ICAO FAUP (UTN)
Name Upington
Region South Africa
Timezone Africa/Johannesburg (UTC+2.0)
Stats Elevation 2,791 ft / 851 m (AMSL)
Location -28.401673° 21.261191°
Runways 3
Magnetic Variation 19.780° W

METAR

FAUP 171200Z 29013G24KT 9999 FEW050 37/05 Q1011 NOSIG

Decode

TAF

Not found

Departure Runways

ID Width Length Bearing (true) Bearing (mag) Surface Threshold Offset Overrun Length
01 150 ft / 46 m 8,008 ft / 2,441 m 349.62° 9.40° Asphalt 0 ft / 0 m 0 ft / 0 m
08 98 ft / 30 m 2,739 ft / 835 m 59.59° 79.37° Asphalt 0 ft / 0 m 0 ft / 0 m
17 197 ft / 60 m 16,091 ft / 4,905 m 153.53° 173.31° Asphalt 0 ft / 0 m 1,181 ft / 360 m
19 150 ft / 46 m 8,008 ft / 2,441 m 169.62° 189.40° Asphalt 0 ft / 0 m 0 ft / 0 m
26 98 ft / 30 m 2,739 ft / 835 m 239.59° 259.37° Asphalt 0 ft / 0 m 0 ft / 0 m
35 197 ft / 60 m 16,091 ft / 4,905 m 333.51° 353.29° Asphalt 0 ft / 0 m 1,180 ft / 360 m

FABL

Details ICAO FABL (BFN)
Name Bloemfontein
Region South Africa
Timezone Africa/Johannesburg (UTC+2.0)
Stats Elevation 4,458 ft / 1,359 m (AMSL)
Location -29.092556° 26.299422°
Runways 2
Magnetic Variation 22.457° W

METAR

FABL 171200Z 05005KT 9999 FEW045 27/14 Q1019 NOSIG

Decode

TAF

Not found

Destination Runways

ID Width Length Bearing (true) Bearing (mag) Surface Threshold Offset Overrun Length
02 151 ft / 46 m 8,404 ft / 2,562 m 0.00° 22.46° Asphalt 0 ft / 0 m 0 ft / 0 m
12 151 ft / 46 m 7,207 ft / 2,197 m 101.01° 123.47° Asphalt 0 ft / 0 m 0 ft / 0 m
20 151 ft / 46 m 8,404 ft / 2,562 m 180.00° 202.46° Asphalt 0 ft / 0 m 0 ft / 0 m
30 151 ft / 46 m 7,207 ft / 2,197 m 280.99° 303.45° Asphalt 0 ft / 0 m 0 ft / 0 m